createdAt,value
2022-08-28T00:00:29.327Z,21.43
2022-08-28T00:02:57.482Z,21.40
2022-08-28T00:05:26.596Z,21.37
2022-08-28T00:07:54.643Z,21.31
2022-08-28T00:10:24.431Z,21.27
2022-08-28T00:12:53.072Z,21.24
2022-08-28T00:15:26.743Z,21.22
2022-08-28T00:17:55.308Z,21.19
2022-08-28T00:20:23.536Z,21.16
2022-08-28T00:22:51.618Z,21.11
2022-08-28T00:25:20.291Z,21.11
2022-08-28T00:27:54.994Z,21.05
2022-08-28T00:30:24.346Z,21.05
2022-08-28T00:32:52.359Z,21.04
2022-08-28T00:35:20.466Z,21.03
2022-08-28T00:37:48.571Z,21.03
2022-08-28T00:40:20.028Z,21.01
2022-08-28T00:43:00.486Z,21.02
2022-08-28T00:45:28.877Z,20.99
2022-08-28T00:47:56.887Z,20.93
2022-08-28T00:50:28.083Z,20.88
2022-08-28T00:52:56.912Z,20.69
2022-08-28T00:55:26.124Z,20.80
2022-08-28T00:57:55.235Z,20.77
2022-08-28T01:00:26.619Z,20.74
2022-08-28T01:02:54.769Z,20.71
2022-08-28T01:05:22.811Z,20.70
2022-08-28T01:07:51.061Z,20.68
2022-08-28T01:10:23.286Z,20.67
2022-08-28T01:12:51.305Z,20.70
2022-08-28T01:15:21.390Z,20.71
2022-08-28T01:17:51.935Z,20.66
2022-08-28T01:20:22.961Z,20.62
2022-08-28T01:22:54.080Z,20.61
2022-08-28T01:25:23.840Z,20.60
2022-08-28T01:27:51.868Z,20.56
2022-08-28T01:30:21.772Z,20.45
2022-08-28T01:32:51.332Z,20.40
2022-08-28T01:35:20.816Z,20.32
2022-08-28T01:37:48.858Z,20.27
2022-08-28T01:40:20.433Z,20.22
2022-08-28T01:42:50.339Z,20.20
2022-08-28T01:45:19.483Z,20.15
2022-08-28T01:47:47.594Z,20.16
2022-08-28T01:50:20.526Z,20.13
2022-08-28T01:52:48.536Z,20.10
2022-08-28T01:55:16.574Z,20.02
2022-08-28T01:57:53.072Z,19.96
2022-08-28T02:00:21.512Z,19.90
2022-08-28T02:02:49.507Z,19.89
2022-08-28T02:05:18.933Z,19.88
2022-08-28T02:07:47.077Z,19.86
2022-08-28T02:10:15.109Z,19.85
2022-08-28T02:12:43.917Z,19.87
2022-08-28T02:15:13.303Z,19.86
2022-08-28T02:17:41.450Z,19.87
2022-08-28T02:20:11.047Z,19.83
2022-08-28T02:22:39.082Z,19.85
2022-08-28T02:25:07.599Z,19.83
2022-08-28T02:27:35.775Z,19.85
2022-08-28T02:30:03.844Z,19.87
2022-08-28T02:32:33.242Z,19.89
2022-08-28T02:35:01.216Z,19.92
2022-08-28T02:37:29.291Z,19.99
2022-08-28T02:39:58.443Z,20.08
2022-08-28T02:42:26.569Z,20.19
2022-08-28T02:44:54.608Z,20.23
2022-08-28T02:47:22.612Z,20.27
2022-08-28T02:49:52.061Z,20.29
2022-08-28T02:52:21.936Z,20.28
2022-08-28T02:54:49.961Z,20.28
2022-08-28T02:57:18.083Z,20.28
2022-08-28T02:59:47.929Z,20.26
2022-08-28T03:02:16.017Z,20.29
2022-08-28T03:04:44.709Z,20.30
2022-08-28T03:07:15.263Z,20.28
2022-08-28T03:09:44.200Z,20.21
2022-08-28T03:12:14.615Z,20.10
2022-08-28T03:14:42.600Z,20.03
2022-08-28T03:17:10.618Z,19.93
2022-08-28T03:19:38.702Z,19.81
2022-08-28T03:22:06.728Z,19.73
2022-08-28T03:24:37.579Z,19.62
2022-08-28T03:27:05.909Z,19.52
2022-08-28T03:29:33.918Z,19.42
2022-08-28T03:32:01.968Z,19.36
2022-08-28T03:34:30.013Z,19.28
2022-08-28T03:36:58.062Z,19.25
2022-08-28T03:39:26.104Z,19.25
2022-08-28T03:41:55.628Z,19.25
2022-08-28T03:44:23.615Z,19.28
2022-08-28T03:46:51.682Z,19.37
2022-08-28T03:49:19.935Z,19.41
2022-08-28T03:51:49.050Z,19.46
2022-08-28T03:54:17.019Z,19.47
2022-08-28T03:56:45.049Z,19.48
2022-08-28T03:59:14.412Z,19.48
2022-08-28T04:01:42.541Z,19.46
2022-08-28T04:04:10.603Z,19.48
2022-08-28T04:06:39.420Z,19.46
2022-08-28T04:09:07.389Z,19.45
2022-08-28T04:11:38.543Z,19.46
2022-08-28T04:14:06.528Z,19.54
2022-08-28T04:16:35.926Z,19.64
2022-08-28T04:19:04.019Z,19.73
2022-08-28T04:21:32.017Z,19.83
2022-08-28T04:24:00.017Z,19.95
2022-08-28T04:26:28.484Z,20.12
2022-08-28T04:28:56.746Z,20.32
2022-08-28T04:31:31.651Z,20.73
2022-08-28T04:34:02.019Z,21.35
2022-08-28T04:36:30.108Z,21.97
2022-08-28T04:38:58.638Z,22.48
2022-08-28T04:41:26.722Z,23.19
2022-08-28T04:43:56.242Z,23.74
2022-08-28T04:46:24.494Z,24.34
2022-08-28T04:48:52.484Z,24.56
2022-08-28T04:51:21.918Z,24.50
2022-08-28T04:53:49.883Z,24.34
2022-08-28T04:56:18.327Z,24.28
2022-08-28T04:58:46.714Z,23.97
2022-08-28T05:01:15.690Z,24.01
2022-08-28T05:03:43.849Z,23.99
2022-08-28T05:06:13.522Z,23.99
2022-08-28T05:08:42.929Z,23.84
2022-08-28T05:11:12.328Z,23.79
2022-08-28T05:13:40.295Z,23.92
2022-08-28T05:16:08.421Z,23.91
2022-08-28T05:18:36.816Z,23.90
2022-08-28T05:21:04.958Z,23.95
2022-08-28T05:23:32.927Z,24.03
2022-08-28T05:26:02.317Z,24.23
2022-08-28T05:28:30.416Z,24.31
2022-08-28T05:30:58.428Z,24.46
2022-08-28T05:33:26.465Z,24.56
2022-08-28T05:35:54.525Z,24.76
2022-08-28T05:38:22.546Z,24.92
2022-08-28T05:40:50.573Z,25.09
2022-08-28T05:43:20.090Z,25.27
2022-08-28T05:45:57.899Z,25.32
2022-08-28T05:48:36.182Z,25.72
2022-08-28T05:51:07.420Z,25.77
2022-08-28T05:53:35.833Z,25.84
2022-08-28T05:56:05.107Z,25.98
2022-08-28T05:58:34.996Z,26.11
2022-08-28T06:01:08.136Z,26.29
2022-08-28T06:03:36.318Z,26.45
2022-08-28T06:06:04.503Z,26.79
2022-08-28T06:08:33.451Z,27.11
2022-08-28T06:11:02.303Z,27.45
2022-08-28T06:13:31.180Z,27.63
2022-08-28T06:16:00.575Z,27.62
2022-08-28T06:18:28.629Z,27.82
2022-08-28T06:20:56.614Z,27.97
2022-08-28T06:23:24.610Z,28.10
2022-08-28T06:25:52.810Z,28.14
2022-08-28T06:28:22.567Z,28.18
2022-08-28T06:31:15.935Z,28.25
2022-08-28T06:33:40.310Z,28.32
2022-08-28T06:36:08.934Z,28.23
2022-08-28T06:38:37.081Z,28.37
2022-08-28T06:41:09.286Z,28.63
2022-08-28T06:43:37.493Z,28.84
2022-08-28T06:46:05.545Z,29.55
2022-08-28T06:48:33.577Z,30.10
2022-08-28T06:51:03.137Z,30.32
2022-08-28T06:53:31.672Z,30.55
2022-08-28T06:56:01.356Z,30.52
2022-08-28T06:58:29.613Z,30.99
2022-08-28T07:01:05.397Z,31.28
2022-08-28T07:03:33.471Z,31.04
2022-08-28T07:06:03.309Z,30.79
2022-08-28T07:08:32.080Z,30.92
2022-08-28T07:11:00.452Z,31.17
2022-08-28T07:13:33.304Z,31.14
2022-08-28T07:16:01.886Z,30.97
2022-08-28T07:18:30.373Z,31.01
2022-08-28T07:20:58.555Z,31.08
2022-08-28T07:23:27.946Z,30.97
2022-08-28T07:25:55.992Z,30.91
2022-08-28T07:28:24.432Z,31.04
2022-08-28T07:30:59.120Z,31.13
2022-08-28T07:33:27.750Z,31.19
2022-08-28T07:35:55.766Z,31.11
2022-08-28T07:38:23.953Z,31.18
2022-08-28T07:40:53.344Z,31.26
2022-08-28T07:43:38.535Z,31.37
2022-08-28T07:46:08.176Z,31.37
2022-08-28T07:48:36.328Z,31.52
2022-08-28T07:51:04.435Z,31.68
2022-08-28T07:53:36.364Z,31.92
2022-08-28T07:56:06.864Z,31.88
2022-08-28T07:58:34.866Z,31.98
2022-08-28T08:01:03.223Z,32.25
2022-08-28T08:03:31.501Z,32.45
2022-08-28T08:06:00.372Z,32.41
2022-08-28T08:08:28.490Z,32.30
2022-08-28T08:11:00.822Z,32.25
2022-08-28T08:13:30.672Z,32.41
2022-08-28T08:16:02.677Z,32.61
2022-08-28T08:18:30.703Z,32.62
2022-08-28T08:20:58.837Z,32.59
2022-08-28T08:23:27.001Z,32.47
2022-08-28T08:25:56.296Z,32.71
2022-08-28T08:28:24.341Z,32.81
2022-08-28T08:31:06.287Z,32.94
2022-08-28T08:33:34.450Z,33.09
2022-08-28T08:36:02.478Z,33.08
2022-08-28T08:38:31.360Z,33.17
2022-08-28T08:41:00.543Z,33.22
2022-08-28T08:43:28.606Z,33.42
2022-08-28T08:45:58.229Z,33.43
2022-08-28T08:48:28.863Z,33.53
2022-08-28T08:50:57.937Z,33.63
2022-08-28T08:53:29.196Z,33.91
2022-08-28T08:55:57.966Z,33.93
2022-08-28T08:58:27.808Z,33.98
2022-08-28T09:01:02.399Z,33.89
2022-08-28T09:03:43.511Z,33.85
2022-08-28T09:06:16.822Z,33.98
2022-08-28T09:08:48.282Z,34.21
2022-08-28T09:11:21.908Z,34.36
2022-08-28T09:13:54.347Z,34.49
2022-08-28T09:16:28.101Z,34.60
2022-08-28T09:18:57.773Z,34.95
2022-08-28T09:21:30.227Z,35.09
2022-08-28T09:24:00.899Z,35.14
2022-08-28T09:26:33.673Z,35.40
2022-08-28T09:29:04.244Z,35.59
2022-08-28T09:31:35.114Z,35.76
2022-08-28T09:34:21.156Z,35.81
2022-08-28T09:36:49.554Z,35.64
2022-08-28T09:39:19.101Z,35.59
2022-08-28T09:42:24.956Z,35.69
2022-08-28T09:44:59.822Z,35.70
2022-08-28T09:47:48.976Z,35.83
2022-08-28T09:50:32.685Z,36.17
2022-08-28T09:53:17.220Z,36.43
2022-08-28T09:55:52.621Z,36.56
2022-08-28T09:58:21.171Z,36.52
2022-08-28T10:00:51.349Z,36.43
2022-08-28T10:03:23.013Z,36.68
2022-08-28T10:05:55.112Z,36.88
2022-08-28T10:08:55.649Z,36.94
2022-08-28T10:11:28.292Z,37.52
2022-08-28T10:13:59.996Z,38.22
2022-08-28T10:16:30.579Z,37.92
2022-08-28T10:19:04.254Z,37.69
2022-08-28T10:21:34.325Z,37.65
2022-08-28T10:24:16.837Z,37.57
2022-08-28T10:26:58.762Z,37.59
2022-08-28T10:29:33.413Z,37.30
2022-08-28T10:32:11.911Z,37.34
2022-08-28T10:34:47.840Z,37.54
2022-08-28T10:37:19.755Z,37.91
2022-08-28T10:39:52.569Z,38.32
2022-08-28T10:42:35.949Z,38.53
2022-08-28T10:45:08.526Z,38.71
2022-08-28T10:47:39.051Z,38.23
2022-08-28T10:50:11.422Z,38.13
2022-08-28T10:52:41.321Z,37.71
2022-08-28T10:55:12.669Z,37.47
2022-08-28T10:57:42.692Z,37.52
2022-08-28T11:00:13.040Z,37.68
2022-08-28T11:02:41.842Z,38.10
2022-08-28T11:05:11.609Z,38.18
2022-08-28T11:07:41.509Z,38.44
2022-08-28T11:10:19.086Z,38.26
2022-08-28T11:12:47.240Z,38.43
2022-08-28T11:15:43.927Z,38.39
2022-08-28T11:18:40.864Z,38.19
2022-08-28T11:21:13.701Z,38.06
2022-08-28T11:23:43.954Z,38.12
2022-08-28T11:26:13.578Z,38.22
2022-08-28T11:28:42.987Z,38.37
2022-08-28T11:31:31.088Z,38.49
2022-08-28T11:34:01.016Z,38.29
2022-08-28T11:36:59.908Z,38.59
2022-08-28T11:39:27.999Z,38.99
2022-08-28T11:42:32.202Z,38.93
2022-08-28T11:45:00.686Z,40.08
2022-08-28T11:47:56.369Z,41.36
2022-08-28T11:50:32.075Z,42.43
2022-08-28T11:53:33.224Z,43.27
2022-08-28T11:56:31.471Z,43.24
2022-08-28T11:59:08.120Z,44.04
2022-08-28T12:01:38.077Z,44.79
2022-08-28T12:04:08.484Z,45.83
2022-08-28T12:06:54.452Z,46.01
2022-08-28T12:09:43.982Z,45.71
2022-08-28T12:12:27.661Z,46.00
2022-08-28T12:14:59.342Z,45.85
2022-08-28T12:17:31.485Z,46.32
2022-08-28T12:20:01.093Z,46.65
2022-08-28T12:22:45.372Z,46.62
2022-08-28T12:25:20.745Z,46.81
2022-08-28T12:27:48.779Z,47.31
2022-08-28T12:30:24.824Z,47.56
2022-08-28T12:32:54.284Z,47.03
2022-08-28T12:35:23.231Z,46.69
2022-08-28T12:38:01.160Z,46.60
2022-08-28T12:40:50.315Z,47.11
2022-08-28T12:43:27.821Z,47.57
2022-08-28T12:45:57.137Z,46.41
2022-08-28T12:48:26.021Z,46.08
2022-08-28T12:51:03.155Z,46.57
2022-08-28T12:53:38.823Z,47.34
2022-08-28T12:56:10.214Z,47.43
2022-08-28T12:58:39.461Z,45.09
2022-08-28T13:01:09.173Z,45.05
2022-08-28T13:03:44.037Z,43.46
2022-08-28T13:06:12.025Z,42.72
2022-08-28T13:08:40.042Z,41.60
2022-08-28T13:11:09.905Z,40.76
2022-08-28T13:13:40.137Z,40.09
2022-08-28T13:16:08.827Z,39.32
2022-08-28T13:18:44.731Z,38.81
2022-08-28T13:21:34.323Z,38.25
2022-08-28T13:24:22.424Z,37.94
2022-08-28T13:27:00.756Z,37.69
2022-08-28T13:29:28.821Z,37.49
2022-08-28T13:31:57.803Z,37.34
2022-08-28T13:34:26.918Z,37.12
2022-08-28T13:36:55.903Z,36.85
2022-08-28T13:39:23.965Z,36.67
2022-08-28T13:41:54.412Z,36.65
2022-08-28T13:44:31.608Z,36.61
2022-08-28T13:46:59.857Z,36.44
2022-08-28T13:49:28.851Z,36.34
2022-08-28T13:51:57.334Z,36.27
2022-08-28T13:54:25.519Z,36.04
2022-08-28T13:56:57.077Z,35.97
2022-08-28T13:59:25.074Z,35.88
2022-08-28T14:02:27.101Z,35.70
2022-08-28T14:04:55.124Z,35.51
2022-08-28T14:07:23.305Z,35.46
2022-08-28T14:09:56.021Z,35.37
2022-08-28T14:12:31.427Z,35.24
2022-08-28T14:15:01.807Z,35.17
2022-08-28T14:17:29.856Z,35.13
2022-08-28T14:19:59.808Z,35.05
2022-08-28T14:22:27.926Z,35.03
2022-08-28T14:24:55.926Z,34.94
2022-08-28T14:27:25.361Z,34.89
2022-08-28T14:29:54.127Z,34.71
2022-08-28T14:32:22.143Z,34.56
2022-08-28T14:34:50.726Z,34.51
2022-08-28T14:37:19.380Z,34.32
2022-08-28T14:39:48.023Z,34.31
2022-08-28T14:42:16.056Z,34.30
2022-08-28T14:44:45.480Z,34.24
2022-08-28T14:47:13.519Z,34.18
2022-08-28T14:49:42.203Z,34.16
2022-08-28T14:52:10.229Z,34.06
2022-08-28T14:54:38.413Z,34.02
2022-08-28T14:57:06.821Z,34.01
2022-08-28T14:59:35.059Z,33.99
2022-08-28T15:02:04.501Z,33.95
2022-08-28T15:04:34.804Z,33.91
2022-08-28T15:07:05.605Z,33.87
2022-08-28T15:09:35.426Z,33.87
2022-08-28T15:12:03.806Z,33.85
2022-08-28T15:14:31.854Z,33.77
2022-08-28T15:17:00.030Z,33.74
2022-08-28T15:19:30.134Z,33.66
2022-08-28T15:21:58.370Z,33.67
2022-08-28T15:24:28.050Z,33.64
2022-08-28T15:26:57.011Z,33.57
2022-08-28T15:29:25.012Z,33.51
2022-08-28T15:31:53.537Z,33.44
2022-08-28T15:34:22.865Z,33.44
2022-08-28T15:36:55.852Z,33.38
2022-08-28T15:39:41.648Z,33.29
2022-08-28T15:42:10.056Z,33.28
2022-08-28T15:44:38.111Z,33.27
2022-08-28T15:47:06.580Z,33.12
2022-08-28T15:49:43.592Z,33.08
2022-08-28T15:52:18.579Z,32.99
2022-08-28T15:54:46.624Z,32.96
2022-08-28T15:57:14.566Z,32.88
2022-08-28T15:59:49.722Z,32.79
2022-08-28T16:02:19.282Z,32.67
2022-08-28T16:04:47.380Z,32.63
2022-08-28T16:07:15.380Z,32.57
2022-08-28T16:09:44.891Z,32.49
2022-08-28T16:12:12.976Z,32.38
2022-08-28T16:14:40.934Z,32.26
2022-08-28T16:17:10.972Z,32.14
2022-08-28T16:19:39.900Z,32.03
2022-08-28T16:22:07.992Z,31.85
2022-08-28T16:24:36.207Z,31.76
2022-08-28T16:27:07.900Z,31.60
2022-08-28T16:29:38.872Z,31.37
2022-08-28T16:32:07.567Z,31.18
2022-08-28T16:34:36.997Z,31.01
2022-08-28T16:37:05.803Z,30.83
2022-08-28T16:39:36.124Z,30.63
2022-08-28T16:42:05.895Z,30.43
2022-08-28T16:44:34.947Z,30.22
2022-08-28T16:47:03.044Z,30.02
2022-08-28T16:49:31.154Z,29.79
2022-08-28T16:51:59.176Z,29.59
2022-08-28T16:54:27.210Z,29.39
2022-08-28T16:56:55.221Z,29.18
2022-08-28T16:59:24.634Z,29.01
2022-08-28T17:01:53.782Z,28.81
2022-08-28T17:04:22.428Z,28.66
2022-08-28T17:06:50.428Z,28.51
2022-08-28T17:09:20.913Z,28.37
2022-08-28T17:11:52.271Z,28.21
2022-08-28T17:14:20.997Z,27.87
2022-08-28T17:16:50.486Z,27.86
2022-08-28T17:19:18.592Z,27.70
2022-08-28T17:22:03.913Z,27.51
2022-08-28T17:24:32.107Z,27.36
2022-08-28T17:27:05.199Z,27.25
2022-08-28T17:29:33.902Z,27.12
2022-08-28T17:32:05.318Z,27.01
2022-08-28T17:34:33.348Z,26.87
2022-08-28T17:37:01.365Z,26.84
2022-08-28T17:39:29.765Z,26.78
2022-08-28T17:41:57.878Z,26.68
2022-08-28T17:44:26.091Z,26.60
2022-08-28T17:46:54.090Z,26.50
2022-08-28T17:49:23.527Z,26.39
2022-08-28T17:51:51.517Z,26.30
2022-08-28T17:54:21.564Z,26.21
2022-08-28T17:56:49.582Z,26.17
2022-08-28T17:59:17.755Z,26.11
2022-08-28T18:01:46.533Z,26.01
2022-08-28T18:04:17.959Z,25.93
2022-08-28T18:06:51.674Z,25.85
2022-08-28T18:09:19.653Z,25.79
2022-08-28T18:11:47.706Z,25.71
2022-08-28T18:14:15.678Z,25.65
2022-08-28T18:16:43.838Z,25.56
2022-08-28T18:19:12.099Z,25.41
2022-08-28T18:21:40.424Z,25.45
2022-08-28T18:24:10.480Z,25.39
2022-08-28T18:26:38.772Z,25.35
2022-08-28T18:29:07.054Z,25.30
2022-08-28T18:31:35.525Z,25.19
2022-08-28T18:34:03.952Z,25.21
2022-08-28T18:36:32.132Z,25.17
2022-08-28T18:39:00.307Z,25.15
2022-08-28T18:41:43.636Z,25.12
2022-08-28T18:44:13.969Z,25.07
2022-08-28T18:46:42.567Z,25.03
2022-08-28T18:49:10.914Z,24.99
2022-08-28T18:51:39.114Z,24.94
2022-08-28T18:54:07.427Z,24.94
2022-08-28T18:56:38.338Z,24.89
2022-08-28T18:59:06.576Z,24.84
2022-08-28T19:01:34.731Z,24.81
2022-08-28T19:04:03.090Z,24.75
2022-08-28T19:06:31.154Z,24.74
2022-08-28T19:08:59.230Z,24.73
2022-08-28T19:11:30.359Z,24.71
2022-08-28T19:14:03.991Z,24.70
2022-08-28T19:16:32.718Z,24.60
2022-08-28T19:19:01.335Z,24.61
2022-08-28T19:21:29.399Z,24.56
2022-08-28T19:23:57.605Z,24.50
2022-08-28T19:26:25.749Z,24.43
2022-08-28T19:28:53.760Z,24.37
2022-08-28T19:31:23.597Z,24.32
2022-08-28T19:33:51.866Z,24.27
2022-08-28T19:36:19.879Z,24.25
2022-08-28T19:38:47.847Z,24.19
2022-08-28T19:41:15.857Z,24.17
2022-08-28T19:43:44.657Z,24.10
2022-08-28T19:46:19.353Z,24.08
2022-08-28T19:48:49.893Z,24.08
2022-08-28T19:51:23.120Z,24.07
2022-08-28T19:53:56.722Z,24.03
2022-08-28T19:56:27.484Z,24.00
2022-08-28T19:58:56.771Z,23.97
2022-08-28T20:01:24.843Z,23.94
2022-08-28T20:03:54.460Z,23.94
2022-08-28T20:06:22.438Z,23.94
2022-08-28T20:08:50.515Z,23.94
2022-08-28T20:11:24.784Z,23.95
2022-08-28T20:13:53.136Z,24.00
2022-08-28T20:16:21.514Z,24.16
2022-08-28T20:18:50.501Z,24.30
2022-08-28T20:21:35.010Z,24.37
2022-08-28T20:24:06.062Z,24.43
2022-08-28T20:26:34.035Z,24.46
2022-08-28T20:29:02.307Z,24.47
2022-08-28T20:31:30.401Z,24.48
2022-08-28T20:33:58.404Z,24.53
2022-08-28T20:36:27.804Z,24.60
2022-08-28T20:38:55.812Z,24.62
2022-08-28T20:41:23.862Z,24.62
2022-08-28T20:43:51.921Z,24.68
2022-08-28T20:46:20.213Z,24.72
2022-08-28T20:48:48.362Z,24.78
2022-08-28T20:51:16.376Z,24.76
2022-08-28T20:53:45.779Z,24.76
2022-08-28T20:56:13.819Z,24.74
2022-08-28T20:58:41.828Z,24.63
2022-08-28T21:01:10.004Z,24.59
2022-08-28T21:03:38.136Z,24.58
2022-08-28T21:06:06.514Z,24.54
2022-08-28T21:08:34.503Z,24.42
2022-08-28T21:11:03.896Z,24.33
2022-08-28T21:13:32.506Z,24.27
2022-08-28T21:16:00.539Z,24.26
2022-08-28T21:18:31.378Z,24.20
2022-08-28T21:20:59.373Z,24.15
2022-08-28T21:23:27.491Z,24.01
2022-08-28T21:25:55.518Z,23.96
2022-08-28T21:28:24.883Z,23.87
2022-08-28T21:30:54.067Z,23.80
2022-08-28T21:33:22.216Z,23.70
2022-08-28T21:35:50.265Z,23.62
2022-08-28T21:38:18.250Z,23.58
2022-08-28T21:40:46.274Z,23.54
2022-08-28T21:43:14.283Z,23.47
2022-08-28T21:45:43.661Z,23.42
2022-08-28T21:48:11.733Z,23.40
2022-08-28T21:50:42.975Z,23.36
2022-08-28T21:53:10.965Z,23.34
2022-08-28T21:55:39.104Z,23.30
2022-08-28T21:58:07.208Z,23.32
2022-08-28T22:00:35.335Z,23.29
2022-08-28T22:03:04.791Z,23.22
2022-08-28T22:05:32.878Z,23.16
2022-08-28T22:08:00.851Z,23.13
2022-08-28T22:10:28.989Z,23.11
2022-08-28T22:12:57.001Z,23.07
2022-08-28T22:15:24.989Z,23.06
2022-08-28T22:17:52.969Z,23.01
2022-08-28T22:20:22.348Z,22.96
2022-08-28T22:23:07.466Z,22.88
2022-08-28T22:25:40.926Z,22.79
2022-08-28T22:28:09.369Z,22.75
2022-08-28T22:30:37.510Z,22.72
2022-08-28T22:33:06.086Z,22.73
2022-08-28T22:35:35.487Z,22.75
2022-08-28T22:38:03.663Z,22.73
2022-08-28T22:40:31.768Z,22.73
2022-08-28T22:42:59.812Z,22.73
2022-08-28T22:45:27.789Z,22.73
2022-08-28T22:47:55.783Z,22.68
2022-08-28T22:50:23.753Z,22.60
2022-08-28T22:52:53.177Z,22.54
2022-08-28T22:55:21.730Z,22.49
2022-08-28T22:57:49.846Z,22.42
2022-08-28T23:00:19.512Z,22.37
2022-08-28T23:02:48.030Z,22.31
2022-08-28T23:05:16.200Z,22.33
2022-08-28T23:07:44.220Z,22.32
2022-08-28T23:10:13.687Z,22.28
2022-08-28T23:12:41.862Z,22.26
2022-08-28T23:15:11.793Z,22.24
2022-08-28T23:17:39.856Z,22.20
2022-08-28T23:20:10.610Z,22.18
2022-08-28T23:22:38.900Z,22.10
2022-08-28T23:25:08.017Z,22.15
2022-08-28T23:27:37.365Z,22.13
2022-08-28T23:30:07.842Z,22.11
2022-08-28T23:32:35.880Z,22.06
2022-08-28T23:35:07.118Z,22.02
2022-08-28T23:37:36.016Z,21.99
2022-08-28T23:40:05.019Z,21.97
2022-08-28T23:42:33.343Z,21.95
2022-08-28T23:45:03.061Z,21.94
2022-08-28T23:47:33.217Z,21.84
2022-08-28T23:50:02.374Z,21.88
2022-08-28T23:52:30.748Z,21.86
2022-08-28T23:55:00.084Z,21.85
2022-08-28T23:57:28.331Z,21.87
2022-08-28T23:59:56.356Z,21.86
